Malartic, Canada
Current Conditions -  °F | °C
As of 6:00 PM on Saturday 25 Oct 2014 (Local Time) from CYVO Reporting Station
Rain Showers Rain Showers  
Wind Chill: 44°   Ceiling: 2700
Heat Index: 46°   Visibility: 12mi
Dew Point: 46°   Wind: 6mph
Humidity: 100%   Direction: 270°W
Pressure: 29.36"   Gusts: NA
Location:  48.13°N, 78.12°W
Report Text: CYVO 252200Z 27005KT 240V310 12SM -SHRA BKN027 OVC080 08/08 A2936 RMK SC7AC1 SLP953
Loading
Personal Weather Stations






























Interactive Weather Map
Tropical Storm Tracking
New forecast layout! Learn more

10-Day Weather Forecast

Advertisements
Track Severe Weather on mobile